createdAt,value
2022-09-07T00:01:14.659Z,23.86
2022-09-07T00:03:41.121Z,23.84
2022-09-07T00:06:08.213Z,23.83
2022-09-07T00:08:34.648Z,23.81
2022-09-07T00:11:01.491Z,23.80
2022-09-07T00:13:28.093Z,23.77
2022-09-07T00:15:54.461Z,23.74
2022-09-07T00:18:20.791Z,23.73
2022-09-07T00:20:47.370Z,23.72
2022-09-07T00:23:14.055Z,23.69
2022-09-07T00:25:40.680Z,23.71
2022-09-07T00:28:07.241Z,23.69
2022-09-07T00:30:33.691Z,23.69
2022-09-07T00:32:59.984Z,23.67
2022-09-07T00:35:26.460Z,23.64
2022-09-07T00:37:53.643Z,23.62
2022-09-07T00:40:19.975Z,23.60
2022-09-07T00:42:46.790Z,23.59
2022-09-07T00:45:13.794Z,23.59
2022-09-07T00:47:40.136Z,23.58
2022-09-07T00:50:06.442Z,23.57
2022-09-07T00:52:33.028Z,23.55
2022-09-07T00:54:59.326Z,23.53
2022-09-07T00:57:25.918Z,23.51
2022-09-07T00:59:52.231Z,23.49
2022-09-07T01:02:18.969Z,23.47
2022-09-07T01:04:45.274Z,23.45
2022-09-07T01:07:11.643Z,23.43
2022-09-07T01:09:38.429Z,23.43
2022-09-07T01:12:04.990Z,23.42
2022-09-07T01:14:31.334Z,23.41
2022-09-07T01:16:57.752Z,23.40
2022-09-07T01:19:24.083Z,23.38
2022-09-07T01:21:50.404Z,23.37
2022-09-07T01:24:16.796Z,23.35
2022-09-07T01:26:43.344Z,23.34
2022-09-07T01:29:10.517Z,23.33
2022-09-07T01:31:36.896Z,23.31
2022-09-07T01:34:03.387Z,23.30
2022-09-07T01:36:30.029Z,23.29
2022-09-07T01:38:56.469Z,23.27
2022-09-07T01:41:23.460Z,23.26
2022-09-07T01:43:50.039Z,23.24
2022-09-07T01:46:16.527Z,23.22
2022-09-07T01:48:43.666Z,23.21
2022-09-07T01:51:10.063Z,23.19
2022-09-07T01:53:36.836Z,23.17
2022-09-07T01:56:03.136Z,23.14
2022-09-07T01:58:29.648Z,23.13
2022-09-07T02:00:56.416Z,23.11
2022-09-07T02:03:23.278Z,23.09
2022-09-07T02:05:49.604Z,23.08
2022-09-07T02:08:15.918Z,23.06
2022-09-07T02:10:42.327Z,23.07
2022-09-07T02:13:08.598Z,23.06
2022-09-07T02:15:34.962Z,23.04
2022-09-07T02:18:01.831Z,23.03
2022-09-07T02:20:28.228Z,23.01
2022-09-07T02:22:54.666Z,22.99
2022-09-07T02:25:21.123Z,22.99
2022-09-07T02:27:47.692Z,22.98
2022-09-07T02:30:14.508Z,22.96
2022-09-07T02:32:40.882Z,22.94
2022-09-07T02:35:07.303Z,22.91
2022-09-07T02:37:33.912Z,22.89
2022-09-07T02:40:00.308Z,22.88
2022-09-07T02:42:26.734Z,22.87
2022-09-07T02:44:53.146Z,22.86
2022-09-07T02:47:19.427Z,22.83
2022-09-07T02:49:46.564Z,22.83
2022-09-07T02:52:12.887Z,22.81
2022-09-07T02:54:39.281Z,22.80
2022-09-07T02:57:05.742Z,22.79
2022-09-07T02:59:32.466Z,22.78
2022-09-07T03:01:58.834Z,22.75
2022-09-07T03:04:25.239Z,22.75
2022-09-07T03:06:51.533Z,22.73
2022-09-07T03:09:18.460Z,22.72
2022-09-07T03:11:44.738Z,22.72
2022-09-07T03:14:11.118Z,22.71
2022-09-07T03:16:37.381Z,22.72
2022-09-07T03:19:03.767Z,22.70
2022-09-07T03:21:30.282Z,22.70
2022-09-07T03:23:56.672Z,22.70
2022-09-07T03:26:23.044Z,22.70
2022-09-07T03:28:49.408Z,22.71
2022-09-07T03:31:16.005Z,22.69
2022-09-07T03:33:42.795Z,22.69
2022-09-07T03:36:09.218Z,22.68
2022-09-07T03:38:35.526Z,22.68
2022-09-07T03:41:02.158Z,22.68
2022-09-07T03:43:28.489Z,22.67
2022-09-07T03:45:55.102Z,22.66
2022-09-07T03:48:21.561Z,22.65
2022-09-07T03:50:48.192Z,22.65
2022-09-07T03:53:15.517Z,22.65
2022-09-07T03:55:42.086Z,22.64
2022-09-07T03:58:08.422Z,22.64
2022-09-07T04:00:34.753Z,22.63
2022-09-07T04:03:01.194Z,22.62
2022-09-07T04:05:27.442Z,22.62
2022-09-07T04:07:53.815Z,22.60
2022-09-07T04:10:20.582Z,22.59
2022-09-07T04:12:46.999Z,22.58
2022-09-07T04:15:13.342Z,22.57
2022-09-07T04:17:39.661Z,22.56
2022-09-07T04:20:06.979Z,22.55
2022-09-07T04:22:33.314Z,22.55
2022-09-07T04:24:59.747Z,22.53
2022-09-07T04:27:26.379Z,22.53
2022-09-07T04:29:52.673Z,22.52
2022-09-07T04:32:19.041Z,22.50
2022-09-07T04:34:45.389Z,22.48
2022-09-07T04:37:12.108Z,22.46
2022-09-07T04:39:38.444Z,22.45
2022-09-07T04:42:04.844Z,22.44
2022-09-07T04:44:31.251Z,22.43
2022-09-07T04:46:57.638Z,22.40
2022-09-07T04:49:24.179Z,22.40
2022-09-07T04:51:50.547Z,22.40
2022-09-07T04:54:16.954Z,22.39
2022-09-07T04:56:43.217Z,22.38
2022-09-07T05:02:00.259Z,22.37
2022-09-07T05:04:26.997Z,22.35
2022-09-07T05:06:53.269Z,22.35
2022-09-07T05:09:19.601Z,22.33
2022-09-07T05:11:45.952Z,22.31
2022-09-07T05:14:12.320Z,22.30
2022-09-07T05:16:38.890Z,22.29
2022-09-07T05:19:05.222Z,22.28
2022-09-07T05:21:31.673Z,22.28
2022-09-07T05:23:58.304Z,22.28
2022-09-07T05:26:24.660Z,22.27
2022-09-07T05:28:51.032Z,22.27
2022-09-07T05:31:18.050Z,22.25
2022-09-07T05:36:31.838Z,22.23
2022-09-07T05:38:58.134Z,22.23
2022-09-07T05:41:24.581Z,22.21
2022-09-07T05:46:37.300Z,22.21
2022-09-07T05:49:03.808Z,22.20
2022-09-07T05:51:30.747Z,22.20
2022-09-07T05:53:56.997Z,22.25
2022-09-07T05:56:23.434Z,22.30
2022-09-07T05:58:50.364Z,22.35
2022-09-07T06:01:17.020Z,22.41
2022-09-07T06:03:43.429Z,22.46
2022-09-07T06:06:09.809Z,22.47
2022-09-07T06:08:36.179Z,22.46
2022-09-07T06:11:02.487Z,22.46
2022-09-07T06:13:29.028Z,22.46
2022-09-07T06:15:55.654Z,22.47
2022-09-07T06:18:22.121Z,22.48
2022-09-07T06:20:48.449Z,22.47
2022-09-07T06:23:14.816Z,22.50
2022-09-07T06:25:41.429Z,22.50
2022-09-07T06:28:08.313Z,22.52
2022-09-07T06:30:34.738Z,22.55
2022-09-07T06:33:01.118Z,22.60
2022-09-07T06:35:27.470Z,22.67
2022-09-07T06:37:54.089Z,22.84
2022-09-07T06:40:20.448Z,22.94
2022-09-07T06:42:47.100Z,23.06
2022-09-07T06:45:13.472Z,23.16
2022-09-07T06:47:39.844Z,23.21
2022-09-07T06:50:06.886Z,23.32
2022-09-07T06:55:20.799Z,23.55
2022-09-07T06:57:47.609Z,23.63
2022-09-07T07:00:14.034Z,23.72
2022-09-07T07:02:40.467Z,23.80
2022-09-07T07:05:06.909Z,23.87
2022-09-07T07:07:33.435Z,23.95
2022-09-07T07:09:59.819Z,24.03
2022-09-07T07:14:51.755Z,24.13
2022-09-07T07:17:18.807Z,24.20
2022-09-07T07:19:45.085Z,24.27
2022-09-07T07:22:35.627Z,24.39
2022-09-07T07:24:57.921Z,24.45
2022-09-07T07:27:24.530Z,24.45
2022-09-07T07:29:51.033Z,24.52
2022-09-07T07:32:17.488Z,24.74
2022-09-07T07:34:44.076Z,24.85
2022-09-07T07:37:10.347Z,25.06
2022-09-07T07:42:23.056Z,25.22
2022-09-07T07:47:36.069Z,25.53
2022-09-07T07:52:50.385Z,25.89
2022-09-07T07:58:03.523Z,26.30
2022-09-07T08:00:44.035Z,26.66
2022-09-07T08:03:16.330Z,27.03
2022-09-07T08:05:42.866Z,27.30
2022-09-07T08:08:09.269Z,27.56
2022-09-07T08:10:35.727Z,27.88
2022-09-07T08:13:02.772Z,28.19
2022-09-07T08:15:29.681Z,28.50
2022-09-07T08:17:56.679Z,28.82
2022-09-07T08:20:23.553Z,29.12
2022-09-07T08:22:49.938Z,29.37
2022-09-07T08:25:16.281Z,29.60
2022-09-07T08:27:42.584Z,29.74
2022-09-07T08:30:08.878Z,29.88
2022-09-07T08:32:35.146Z,30.01
2022-09-07T08:35:02.036Z,30.21
2022-09-07T08:37:28.372Z,30.38
2022-09-07T08:39:54.666Z,30.54
2022-09-07T08:42:21.004Z,30.65
2022-09-07T08:44:47.414Z,30.75
2022-09-07T08:47:13.803Z,30.83
2022-09-07T08:49:40.119Z,30.86
2022-09-07T08:52:06.564Z,30.84
2022-09-07T08:54:33.261Z,30.80
2022-09-07T08:59:46.325Z,30.58
2022-09-07T09:02:30.025Z,30.48
2022-09-07T09:07:44.589Z,30.14
2022-09-07T09:10:10.869Z,29.99
2022-09-07T09:12:37.957Z,29.80
2022-09-07T09:15:04.650Z,29.56
2022-09-07T09:17:31.188Z,29.19
2022-09-07T09:19:57.424Z,28.78
2022-09-07T09:22:23.681Z,28.61
2022-09-07T09:24:50.272Z,28.52
2022-09-07T09:27:16.652Z,28.46
2022-09-07T09:29:46.231Z,28.42
2022-09-07T09:32:13.076Z,28.42
2022-09-07T09:34:39.401Z,28.42
2022-09-07T09:37:05.866Z,28.44
2022-09-07T09:39:33.180Z,28.45
2022-09-07T09:41:59.607Z,28.47
2022-09-07T09:44:25.989Z,28.50
2022-09-07T09:47:29.521Z,28.51
2022-09-07T09:49:38.789Z,28.53
2022-09-07T09:54:51.621Z,28.56
2022-09-07T09:57:18.099Z,28.57
2022-09-07T10:00:03.942Z,28.57
2022-09-07T10:05:17.108Z,28.62
2022-09-07T10:07:43.498Z,28.65
2022-09-07T10:10:09.795Z,28.68
2022-09-07T10:12:36.092Z,28.69
2022-09-07T10:15:02.384Z,28.72
2022-09-07T10:17:28.675Z,28.73
2022-09-07T10:19:55.066Z,28.75
2022-09-07T10:22:21.437Z,28.76
2022-09-07T10:24:48.158Z,28.75
2022-09-07T10:27:14.445Z,28.74
2022-09-07T10:29:41.244Z,28.76
2022-09-07T10:32:07.570Z,28.79
2022-09-07T10:34:33.937Z,28.82
2022-09-07T10:37:03.436Z,28.83
2022-09-07T10:39:29.866Z,28.84
2022-09-07T10:41:56.174Z,28.80
2022-09-07T10:44:22.412Z,28.69
2022-09-07T10:46:56.652Z,28.77
2022-09-07T10:49:24.077Z,28.82
2022-09-07T10:51:50.351Z,28.84
2022-09-07T10:54:32.230Z,28.83
2022-09-07T10:56:59.546Z,28.80
2022-09-07T10:59:26.545Z,28.84
2022-09-07T11:01:53.611Z,28.87
2022-09-07T11:04:19.866Z,28.89
2022-09-07T11:06:47.029Z,28.92
2022-09-07T11:09:16.595Z,28.91
2022-09-07T11:14:30.196Z,28.87
2022-09-07T11:16:56.573Z,28.90
2022-09-07T11:19:38.729Z,28.93
2022-09-07T11:22:05.799Z,28.96
2022-09-07T11:24:32.145Z,28.98
2022-09-07T11:26:58.376Z,29.00
2022-09-07T11:29:31.902Z,29.02
2022-09-07T11:31:58.211Z,29.03
2022-09-07T11:34:24.816Z,29.01
2022-09-07T11:36:52.608Z,28.99
2022-09-07T11:39:19.244Z,28.98
2022-09-07T11:41:45.642Z,28.97
2022-09-07T11:44:11.958Z,28.99
2022-09-07T11:46:38.622Z,28.91
2022-09-07T11:49:04.975Z,29.03
2022-09-07T11:51:31.537Z,29.03
2022-09-07T11:53:58.050Z,29.03
2022-09-07T11:56:24.552Z,29.04
2022-09-07T11:58:50.986Z,29.07
2022-09-07T12:01:17.441Z,29.07
2022-09-07T12:03:44.596Z,29.09
2022-09-07T12:06:10.965Z,29.12
2022-09-07T12:08:37.260Z,29.12
2022-09-07T12:11:03.819Z,29.12
2022-09-07T12:13:30.135Z,29.11
2022-09-07T12:15:56.558Z,29.08
2022-09-07T12:18:22.906Z,29.07
2022-09-07T12:20:49.218Z,29.05
2022-09-07T12:23:15.500Z,29.04
2022-09-07T12:25:41.752Z,29.04
2022-09-07T12:28:08.029Z,29.07
2022-09-07T12:30:34.425Z,29.10
2022-09-07T12:33:03.690Z,29.14
2022-09-07T12:35:30.148Z,29.16
2022-09-07T12:37:56.475Z,29.19
2022-09-07T12:40:22.829Z,29.19
2022-09-07T12:42:49.062Z,29.20
2022-09-07T12:45:15.293Z,29.20
2022-09-07T12:47:41.641Z,29.18
2022-09-07T12:50:09.904Z,29.20
2022-09-07T12:52:36.300Z,29.20
2022-09-07T12:55:26.554Z,29.15
2022-09-07T12:57:49.238Z,29.09
2022-09-07T13:00:15.654Z,29.06
2022-09-07T13:02:42.052Z,29.03
2022-09-07T13:05:09.699Z,29.00
2022-09-07T13:07:36.126Z,28.98
2022-09-07T13:10:02.563Z,28.96
2022-09-07T13:15:23.853Z,28.95
2022-09-07T13:17:50.389Z,28.94
2022-09-07T13:20:21.880Z,28.93
2022-09-07T13:22:48.246Z,28.92
2022-09-07T13:25:14.593Z,28.86
2022-09-07T13:27:41.177Z,28.82
2022-09-07T13:30:07.518Z,28.79
2022-09-07T13:35:20.347Z,28.77
2022-09-07T13:37:46.614Z,28.73
2022-09-07T13:40:13.127Z,28.70
2022-09-07T13:42:39.414Z,28.70
2022-09-07T13:45:06.139Z,28.71
2022-09-07T13:47:32.438Z,28.70
2022-09-07T13:49:58.877Z,28.70
2022-09-07T13:52:25.151Z,28.71
2022-09-07T13:54:51.457Z,28.70
2022-09-07T13:57:17.806Z,28.66
2022-09-07T13:59:44.135Z,28.65
2022-09-07T14:02:10.463Z,28.64
2022-09-07T14:04:36.986Z,28.65
2022-09-07T14:07:03.325Z,28.63
2022-09-07T14:09:29.602Z,28.62
2022-09-07T14:11:55.948Z,28.62
2022-09-07T14:14:22.256Z,28.59
2022-09-07T14:16:48.646Z,28.55
2022-09-07T14:19:15.087Z,28.51
2022-09-07T14:21:41.418Z,28.49
2022-09-07T14:24:07.741Z,28.45
2022-09-07T14:26:33.993Z,28.43
2022-09-07T14:29:00.311Z,28.41
2022-09-07T14:31:26.589Z,28.39
2022-09-07T14:33:53.032Z,28.37
2022-09-07T14:36:41.862Z,28.35
2022-09-07T14:39:05.931Z,28.30
2022-09-07T14:41:32.403Z,28.27
2022-09-07T14:43:58.899Z,28.23
2022-09-07T14:46:25.257Z,28.20
2022-09-07T14:48:53.403Z,28.17
2022-09-07T14:51:34.823Z,28.15
2022-09-07T14:54:01.937Z,28.15
2022-09-07T14:56:28.336Z,28.13
2022-09-07T14:58:54.653Z,28.10
2022-09-07T15:01:37.569Z,28.08
2022-09-07T15:04:04.272Z,28.08
2022-09-07T15:09:16.992Z,28.10
2022-09-07T15:11:43.380Z,28.08
2022-09-07T15:14:09.692Z,28.05
2022-09-07T15:16:36.380Z,28.02
2022-09-07T15:19:02.770Z,27.99
2022-09-07T15:21:29.097Z,27.97
2022-09-07T15:23:55.366Z,27.95
2022-09-07T15:29:08.831Z,27.91
2022-09-07T15:31:45.965Z,27.86
2022-09-07T15:34:20.874Z,27.80
2022-09-07T15:36:48.538Z,27.76
2022-09-07T15:39:15.024Z,27.72
2022-09-07T15:41:42.783Z,27.68
2022-09-07T15:44:09.273Z,27.65
2022-09-07T15:46:37.121Z,27.62
2022-09-07T15:49:03.993Z,27.58
2022-09-07T15:54:16.637Z,27.54
2022-09-07T15:56:44.005Z,27.53
2022-09-07T15:59:29.497Z,27.58
2022-09-07T16:01:59.458Z,27.60
2022-09-07T16:04:26.127Z,27.63
2022-09-07T16:06:52.437Z,27.66
2022-09-07T16:09:21.738Z,27.67
2022-09-07T16:11:50.053Z,27.68
2022-09-07T16:14:20.237Z,27.70
2022-09-07T16:19:35.075Z,27.71
2022-09-07T16:22:01.565Z,27.72
2022-09-07T16:24:28.081Z,27.72
2022-09-07T16:26:54.319Z,27.71
2022-09-07T16:29:20.855Z,27.71
2022-09-07T16:34:33.424Z,27.69
2022-09-07T16:37:01.901Z,27.69
2022-09-07T16:39:28.508Z,27.68
2022-09-07T16:41:54.936Z,27.68
2022-09-07T16:44:21.283Z,27.68
2022-09-07T16:46:47.568Z,27.67
2022-09-07T16:49:13.876Z,27.67
2022-09-07T16:51:40.245Z,27.65
2022-09-07T16:54:06.552Z,27.65
2022-09-07T16:56:36.917Z,27.64
2022-09-07T16:59:05.163Z,27.63
2022-09-07T17:01:31.492Z,27.62
2022-09-07T17:03:57.910Z,27.60
2022-09-07T17:06:24.360Z,27.59
2022-09-07T17:08:50.780Z,27.57
2022-09-07T17:11:17.220Z,27.56
2022-09-07T17:13:43.561Z,27.53
2022-09-07T17:16:10.207Z,27.51
2022-09-07T17:21:23.123Z,27.46
2022-09-07T17:23:54.680Z,27.44
2022-09-07T17:26:21.334Z,27.41
2022-09-07T17:28:47.666Z,27.40
2022-09-07T17:32:23.941Z,27.37
2022-09-07T17:34:00.188Z,27.35
2022-09-07T17:36:26.571Z,27.32
2022-09-07T17:41:39.383Z,27.27
2022-09-07T17:44:05.682Z,27.26
2022-09-07T17:46:32.013Z,27.24
2022-09-07T17:48:58.400Z,27.22
2022-09-07T17:51:24.646Z,27.20
2022-09-07T17:53:51.647Z,27.18
2022-09-07T17:56:18.122Z,27.17
2022-09-07T17:58:44.603Z,27.14
2022-09-07T18:01:11.098Z,27.13
2022-09-07T18:03:37.611Z,27.11
2022-09-07T18:06:04.461Z,27.09
2022-09-07T18:08:30.760Z,27.08
2022-09-07T18:13:43.739Z,27.04
2022-09-07T18:16:10.166Z,27.02
2022-09-07T18:18:36.576Z,27.01
2022-09-07T18:21:03.386Z,26.98
2022-09-07T18:23:29.800Z,26.96
2022-09-07T18:25:56.200Z,26.94
2022-09-07T18:31:08.793Z,26.90
2022-09-07T18:33:35.170Z,26.87
2022-09-07T18:36:01.455Z,26.85
2022-09-07T18:38:27.742Z,26.80
2022-09-07T18:40:54.313Z,26.73
2022-09-07T18:43:20.850Z,26.67
2022-09-07T18:45:47.248Z,26.58
2022-09-07T18:48:13.526Z,26.53
2022-09-07T18:50:39.928Z,26.47
2022-09-07T18:53:16.140Z,26.41
2022-09-07T18:55:43.250Z,26.36
2022-09-07T18:58:09.636Z,26.30
2022-09-07T19:00:35.985Z,26.25
2022-09-07T19:03:02.287Z,26.20
2022-09-07T19:08:15.272Z,26.15
2022-09-07T19:10:41.587Z,26.12
2022-09-07T19:16:02.294Z,26.03
2022-09-07T19:18:28.565Z,25.97
2022-09-07T19:20:54.859Z,25.93
2022-09-07T19:23:21.119Z,25.90
2022-09-07T19:25:47.411Z,25.86
2022-09-07T19:28:13.709Z,25.83
2022-09-07T19:30:40.022Z,25.79
2022-09-07T19:33:06.449Z,25.76
2022-09-07T19:35:32.843Z,25.70
2022-09-07T19:37:59.180Z,25.66
2022-09-07T19:40:25.523Z,25.62
2022-09-07T19:42:51.813Z,25.56
2022-09-07T19:45:18.592Z,25.53
2022-09-07T19:47:45.144Z,25.48
2022-09-07T19:50:11.533Z,25.42
2022-09-07T19:52:37.758Z,25.38
2022-09-07T19:55:04.326Z,25.36
2022-09-07T19:57:30.685Z,25.35
2022-09-07T19:59:57.039Z,25.33
2022-09-07T20:02:23.324Z,25.32
2022-09-07T20:04:49.608Z,25.29
2022-09-07T20:07:15.909Z,25.28
2022-09-07T20:09:42.400Z,25.25
2022-09-07T20:12:08.754Z,25.20
2022-09-07T20:14:35.161Z,25.12
2022-09-07T20:17:01.464Z,25.05
2022-09-07T20:19:27.807Z,24.98
2022-09-07T20:21:54.127Z,24.93
2022-09-07T20:27:04.565Z,24.83
2022-09-07T20:29:31.273Z,24.78
2022-09-07T20:31:57.689Z,24.75
2022-09-07T20:34:24.007Z,24.72
2022-09-07T20:36:50.321Z,24.70
2022-09-07T20:39:16.743Z,24.67
2022-09-07T20:41:43.170Z,24.64
2022-09-07T20:44:09.675Z,24.61
2022-09-07T20:46:35.989Z,24.57
2022-09-07T20:49:02.328Z,24.55
2022-09-07T20:51:28.638Z,24.50
2022-09-07T20:53:55.579Z,24.47
2022-09-07T20:56:22.081Z,24.45
2022-09-07T20:58:48.329Z,24.42
2022-09-07T21:01:14.750Z,24.40
2022-09-07T21:03:48.555Z,24.35
2022-09-07T21:06:16.175Z,24.28
2022-09-07T21:08:42.489Z,24.23
2022-09-07T21:11:08.727Z,24.18
2022-09-07T21:13:35.280Z,24.14
2022-09-07T21:16:01.651Z,24.10
2022-09-07T21:18:28.191Z,24.07
2022-09-07T21:21:18.434Z,24.02
2022-09-07T21:23:40.858Z,23.99
2022-09-07T21:26:07.340Z,23.97
2022-09-07T21:28:33.768Z,23.95
2022-09-07T21:31:00.246Z,23.93
2022-09-07T21:33:26.531Z,23.89
2022-09-07T21:35:52.819Z,23.86
2022-09-07T21:38:19.087Z,23.83
2022-09-07T21:40:45.389Z,23.80
2022-09-07T21:43:11.728Z,23.78
2022-09-07T21:45:38.302Z,23.76
2022-09-07T21:48:04.520Z,23.73
2022-09-07T21:50:30.755Z,23.69
2022-09-07T21:52:57.177Z,23.67
2022-09-07T21:55:23.469Z,23.65
2022-09-07T21:57:49.763Z,23.63
2022-09-07T22:00:16.396Z,23.60
2022-09-07T22:02:42.866Z,23.57
2022-09-07T22:05:31.931Z,23.54
2022-09-07T22:07:58.201Z,23.48
2022-09-07T22:10:24.796Z,23.43
2022-09-07T22:12:51.333Z,23.39
2022-09-07T22:15:17.770Z,23.34
2022-09-07T22:17:46.294Z,23.32
2022-09-07T22:20:12.798Z,23.30
2022-09-07T22:22:39.028Z,23.28
2022-09-07T22:25:05.333Z,23.25
2022-09-07T22:27:31.769Z,23.21
2022-09-07T22:29:58.154Z,23.19
2022-09-07T22:32:24.475Z,23.16
2022-09-07T22:34:50.987Z,23.13
2022-09-07T22:37:17.266Z,23.10
2022-09-07T22:39:43.735Z,23.08
2022-09-07T22:42:10.168Z,23.07
2022-09-07T22:44:36.419Z,23.02
2022-09-07T22:47:02.746Z,22.98
2022-09-07T22:49:29.262Z,22.94
2022-09-07T22:51:55.606Z,22.92
2022-09-07T22:54:21.838Z,22.90
2022-09-07T22:56:48.291Z,22.89
2022-09-07T22:59:14.720Z,22.87
2022-09-07T23:01:41.224Z,22.84
2022-09-07T23:04:09.269Z,22.82
2022-09-07T23:06:35.776Z,22.78
2022-09-07T23:09:02.644Z,22.73
2022-09-07T23:11:28.888Z,22.70
2022-09-07T23:13:55.162Z,22.66
2022-09-07T23:16:21.561Z,22.63
2022-09-07T23:18:48.443Z,22.59
2022-09-07T23:21:14.771Z,22.56
2022-09-07T23:23:41.457Z,22.53
2022-09-07T23:26:07.750Z,22.51
2022-09-07T23:28:34.143Z,22.49
2022-09-07T23:31:00.960Z,22.46
2022-09-07T23:33:28.498Z,22.46
2022-09-07T23:35:54.947Z,22.44
2022-09-07T23:38:21.464Z,22.43
2022-09-07T23:40:47.966Z,22.41
2022-09-07T23:43:14.502Z,22.39
2022-09-07T23:45:40.829Z,22.39
2022-09-07T23:48:07.599Z,22.39
2022-09-07T23:50:33.911Z,22.37
2022-09-07T23:53:00.249Z,22.37
2022-09-07T23:55:26.496Z,22.34
2022-09-07T23:57:53.893Z,22.30
